sensor_id;sensor_type;location;lat;lon;timestamp;P1;P2;P0
37775;PMS5003;23614;33.774;130.514;2023-08-06T19:50:52;3;3;
37775;PMS5003;23614;33.774;130.514;2023-08-06T19:53:17;1;1;
37775;PMS5003;23614;33.774;130.514;2023-08-06T19:55:42;3;3;
37775;PMS5003;23614;33.774;130.514;2023-08-06T19:58:08;2;2;
37775;PMS5003;23614;33.774;130.514;2023-08-06T20:00:34;3;2;
37775;PMS5003;23614;33.774;130.514;2023-08-06T20:03:00;2;1;
37775;PMS5003;23614;33.774;130.514;2023-08-06T20:05:26;2;2;
37775;PMS5003;23614;33.774;130.514;2023-08-06T20:07:52;2;2;
37775;PMS5003;23614;33.774;130.514;2023-08-06T20:10:18;3;2;
37775;PMS5003;23614;33.774;130.514;2023-08-06T20:12:44;3;3;
37775;PMS5003;23614;33.774;130.514;2023-08-06T20:15:10;2;1;
37775;PMS5003;23614;33.774;130.514;2023-08-06T20:17:36;4;4;
37775;PMS5003;23614;33.774;130.514;2023-08-06T20:20:02;2;2;
37775;PMS5003;23614;33.774;130.514;2023-08-06T20:22:28;2;2;
37775;PMS5003;23614;33.774;130.514;2023-08-06T20:24:54;3;2;
37775;PMS5003;23614;33.774;130.514;2023-08-06T20:27:20;2;2;
37775;PMS5003;23614;33.774;130.514;2023-08-06T20:29:46;2;2;
37775;PMS5003;23614;33.774;130.514;2023-08-06T20:32:12;2;2;
37775;PMS5003;23614;33.774;130.514;2023-08-06T20:34:38;2;2;
37775;PMS5003;23614;33.774;130.514;2023-08-06T20:37:04;2;2;
37775;PMS5003;23614;33.774;130.514;2023-08-06T20:39:30;4;2;
37775;PMS5003;23614;33.774;130.514;2023-08-06T20:41:56;3;3;
37775;PMS5003;23614;33.774;130.514;2023-08-06T20:51:41;3;3;
37775;PMS5003;23614;33.774;130.514;2023-08-06T20:54:06;3;3;
37775;PMS5003;23614;33.774;130.514;2023-08-06T20:56:33;3;3;
37775;PMS5003;23614;33.774;130.514;2023-08-06T20:58:59;3;3;
37775;PMS5003;23614;33.774;130.514;2023-08-06T21:01:24;3;3;
37775;PMS5003;23614;33.774;130.514;2023-08-06T21:03:50;4;4;
37775;PMS5003;23614;33.774;130.514;2023-08-06T21:08:42;3;3;
37775;PMS5003;23614;33.774;130.514;2023-08-06T21:11:08;3;3;
37775;PMS5003;23614;33.774;130.514;2023-08-06T21:13:35;3;3;
37775;PMS5003;23614;33.774;130.514;2023-08-06T21:16:02;4;3;
37775;PMS5003;23614;33.774;130.514;2023-08-06T21:18:27;3;3;
37775;PMS5003;23614;33.774;130.514;2023-08-06T21:20:57;3;3;
37775;PMS5003;23614;33.774;130.514;2023-08-06T21:23:19;2;2;
37775;PMS5003;23614;33.774;130.514;2023-08-06T21:25:48;5;3;
37775;PMS5003;23614;33.774;130.514;2023-08-06T21:28:10;5;5;
37775;PMS5003;23614;33.774;130.514;2023-08-06T21:30:36;4;4;
37775;PMS5003;23614;33.774;130.514;2023-08-06T21:33:02;4;4;
37775;PMS5003;23614;33.774;130.514;2023-08-06T21:35:28;3;3;
37775;PMS5003;23614;33.774;130.514;2023-08-06T21:37:54;1;1;
37775;PMS5003;23614;33.774;130.514;2023-08-06T21:40:20;3;3;
37775;PMS5003;23614;33.774;130.514;2023-08-06T21:42:46;3;2;
37775;PMS5003;23614;33.774;130.514;2023-08-06T21:45:12;2;2;
37775;PMS5003;23614;33.774;130.514;2023-08-06T21:47:38;6;4;
37775;PMS5003;23614;33.774;130.514;2023-08-06T21:50:05;3;3;
37775;PMS5003;23614;33.774;130.514;2023-08-06T21:52:31;4;4;
37775;PMS5003;23614;33.774;130.514;2023-08-06T21:54:56;5;5;
37775;PMS5003;23614;33.774;130.514;2023-08-06T21:57:23;3;3;
37775;PMS5003;23614;33.774;130.514;2023-08-06T21:59:48;6;5;
37775;PMS5003;23614;33.774;130.514;2023-08-06T22:02:14;4;4;
37775;PMS5003;23614;33.774;130.514;2023-08-06T22:04:40;5;5;
37775;PMS5003;23614;33.774;130.514;2023-08-06T22:07:06;3;3;
37775;PMS5003;23614;33.774;130.514;2023-08-06T22:09:32;4;4;
37775;PMS5003;23614;33.774;130.514;2023-08-06T22:11:58;6;5;
37775;PMS5003;23614;33.774;130.514;2023-08-06T22:14:25;4;4;
37775;PMS5003;23614;33.774;130.514;2023-08-06T22:16:50;5;4;
37775;PMS5003;23614;33.774;130.514;2023-08-06T22:19:16;6;5;
37775;PMS5003;23614;33.774;130.514;2023-08-06T22:21:42;4;4;
37775;PMS5003;23614;33.774;130.514;2023-08-06T22:24:08;3;3;
37775;PMS5003;23614;33.774;130.514;2023-08-06T22:26:34;4;3;
37775;PMS5003;23614;33.774;130.514;2023-08-06T22:29:00;3;3;
37775;PMS5003;23614;33.774;130.514;2023-08-06T22:31:26;4;4;
37775;PMS5003;23614;33.774;130.514;2023-08-06T22:33:52;5;5;
37775;PMS5003;23614;33.774;130.514;2023-08-06T22:36:18;4;4;
37775;PMS5003;23614;33.774;130.514;2023-08-06T22:38:44;3;3;
37775;PMS5003;23614;33.774;130.514;2023-08-06T22:41:10;3;3;
37775;PMS5003;23614;33.774;130.514;2023-08-06T22:43:36;4;4;
37775;PMS5003;23614;33.774;130.514;2023-08-06T22:46:02;6;6;
37775;PMS5003;23614;33.774;130.514;2023-08-06T22:48:28;6;6;
37775;PMS5003;23614;33.774;130.514;2023-08-06T22:50:54;6;6;
37775;PMS5003;23614;33.774;130.514;2023-08-06T22:53:21;7;6;
37775;PMS5003;23614;33.774;130.514;2023-08-06T22:55:46;6;5;
37775;PMS5003;23614;33.774;130.514;2023-08-06T22:58:13;5;5;
37775;PMS5003;23614;33.774;130.514;2023-08-06T23:03:04;6;5;
37775;PMS5003;23614;33.774;130.514;2023-08-06T23:05:30;4;4;
37775;PMS5003;23614;33.774;130.514;2023-08-06T23:07:57;5;5;
37775;PMS5003;23614;33.774;130.514;2023-08-06T23:10:23;8;6;
37775;PMS5003;23614;33.774;130.514;2023-08-06T23:12:48;6;6;
37775;PMS5003;23614;33.774;130.514;2023-08-06T23:15:15;5;5;
37775;PMS5003;23614;33.774;130.514;2023-08-06T23:17:40;4;4;
37775;PMS5003;23614;33.774;130.514;2023-08-06T23:20:07;4;4;
37775;PMS5003;23614;33.774;130.514;2023-08-06T23:22:32;5;5;
37775;PMS5003;23614;33.774;130.514;2023-08-06T23:24:58;7;6;
37775;PMS5003;23614;33.774;130.514;2023-08-06T23:27:24;4;4;
37775;PMS5003;23614;33.774;130.514;2023-08-06T23:29:50;5;5;
37775;PMS5003;23614;33.774;130.514;2023-08-06T23:32:16;7;6;
37775;PMS5003;23614;33.774;130.514;2023-08-06T23:34:42;6;6;
37775;PMS5003;23614;33.774;130.514;2023-08-06T23:37:08;7;7;
37775;PMS5003;23614;33.774;130.514;2023-08-06T23:42:00;19;19;
37775;PMS5003;23614;33.774;130.514;2023-08-06T23:46:52;16;16;
37775;PMS5003;23614;33.774;130.514;2023-08-06T23:49:18;14;14;
37775;PMS5003;23614;33.774;130.514;2023-08-06T23:51:44;13;12;
37775;PMS5003;23614;33.774;130.514;2023-08-06T23:54:10;10;10;
37775;PMS5003;23614;33.774;130.514;2023-08-06T23:56:36;11;10;
37775;PMS5003;23614;33.774;130.514;2023-08-06T23:59:02;9;9;
